South Uniontown, PA

2:00 AM EST on December 06, 2016 (GMT -0500)
Nick's Weather | | Change Station

Elev 1060 ft 39.90 °N, 79.74 °W | Updated 2 hours ago

Clear
Clear
31.2 °F
Feels Like 31 °F
N
0.0
Wind Variable Wind from NE
Gusts 0.0 mph

Today
High -- | Low -- °F
--% Chance of Precip.
Yesterday
High -- | Low -- °F
Precip. -- in
Pressure 29.99 in
Visibility 10.0 miles
Clouds Clear
Windchill 31 °F
Dew Point 28 °F
Humidity 89%
Rainfall in
Snow Depth Not available.
7:26 AM 4:53 PM
Waxing Crescent, 39% visible
METAR KMGW 060653Z AUTO 04005KT 10SM CLR 04/M02 A2998 RMK AO2 SLP156 T00391017
Pressure 29.99 in
Visibility 10.0 miles
Clouds Clear
Windchill 31 °F
Dew Point 28 °F
Humidity 89%
Rainfall in
Snow Depth Not available.
7:26 AM 4:53 PM
Waxing Crescent, 39% visible
METAR KMGW 060653Z AUTO 04005KT 10SM CLR 04/M02 A2998 RMK AO2 SLP156 T00391017

10-Day Weather Forecast

Almanac

Astronomy

Dec. 06, 2016 Rise Set
Actual Time
Civil Twilight
Nautical Twilight
Astronomical Twilight
Moon
Length of Visible Light
Length of Day
Tomorrow will be .
, % of the Moon is Illuminated

Today's Extremes

State Highs State Lows

Community

WunderPhotos

Upload Photos

1,955,932 photos uploaded!

WunderBlog® & News

Nearby

Air Quality

  Air Quality AQ Index Pollutant
Not available.

Snow Depth

Station Depth Elevation

Earthquake Activity

City Distance Mag. Time & Date
Minimum magnitude displayed is 2.5.

Coastal Water Temperatures

Place Temperature

Stations

Nearby Weather Stations

Station Location Temp. Windchill Dew Point Humidity Wind Precip. Elev Updated Type
                   

Watches & Warnings

There are currently no watches in effect.